ソチ の空港の天気 - METARとTAF

ソチ空港 ( URSS / AER ) - ロシア ソチ
飛行場実況気象(Metar)
観測時間05/25 13:00 MSK (05/25 10:00 UTC)
風向・風速南南西 4m/s
視程10km以上
天気現象
少しの雲 雲底高度 910m
気温18℃
湿度60%
気圧1018hPa
METARURSS 251000Z 21004MPS 9999 FEW030 18/10 Q1018 R02/090070 R06/090070 NOSIG RMK R06/27004G07MPS MT OBSC QFE762
過去の天気等 Google飛行場航空写真 Wunderground天気予報

過去48時間のMETAR

飛行場予報(TAF)
発表時間: 5/25 10:57 MSK (5/25 07:57 UTC)
予報対象時間: 25日12時 MSK ~ 26日12時 MSK
風向・風速西 5m/s 瞬間風速 10m/s
視程10km以上
全天の4割程度の積乱雲 雲底高度 910m
全天の8割程度の雲 雲底高度 3,050m
25日12時 MSK ~ 25日15時 MSK に一時的に
風向・風速南西 5m/s 瞬間風速 10m/s
25日20時 MSK ~ 25日21時 MSK に徐々に
風向・風速北東 6m/s
全天の4割程度の雲 雲底高度 300m
26日9時 MSK ~ 26日10時 MSK に徐々に
風向・風速西 5m/s 瞬間風速 10m/s
全天の4割程度の雲 雲底高度 910m
全天の4割程度の雲 雲底高度 3,050m
TAF URSS 250757Z 2509/2609 28005G10MPS 9999 SCT030CB BKN100
TEMPO 2509/2512 22005G10MPS
BECMG 2517/2518 05006MPS SCT010
BECMG 2606/2607 28005G10MPS SCT030 SCT100